Time;durP1;ratioP1;P1;durP2;ratioP2;P2;SDS_P1;SDS_P2;PMS_P1;PMS_P2;Temp;Humidity;BMP_temperature;BMP_pressure;BME280_temperature;BME280_humidity;BME280_pressure;Samples;Min_cycle;Max_cycle;Signal;HPM_P1;HPM_P2
2021/10/04 00:00:56;;;;;;;19.50;9.10;;;;;;;14.66;84.89;100431.53;5089693;28;20256;-71
2021/10/04 00:03:25;;;;;;;19.53;8.70;;;;;;;14.72;84.72;100436.41;5088083;28;20207;-69
2021/10/04 00:05:53;;;;;;;20.83;9.00;;;;;;;14.59;85.53;100426.69;5075678;28;20218;-69
2021/10/04 00:08:21;;;;;;;18.50;9.10;;;;;;;14.57;85.52;100444.88;5087835;28;20223;-71
2021/10/04 00:10:50;;;;;;;20.27;9.07;;;;;;;14.63;85.67;100445.31;5071203;28;20593;-71
2021/10/04 00:13:19;;;;;;;18.77;9.00;;;;;;;14.60;85.54;100447.31;5071030;28;20228;-69
2021/10/04 00:15:49;;;;;;;22.27;10.47;;;;;;;14.54;85.82;100442.44;5089404;28;20200;-70
2021/10/04 00:18:17;;;;;;;25.77;10.53;;;;;;;14.58;85.86;100435.78;5089219;28;20763;-69
2021/10/04 00:20:45;;;;;;;20.03;8.60;;;;;;;14.57;86.44;100449.44;5088407;28;20204;-69
2021/10/04 00:23:14;;;;;;;21.57;9.93;;;;;;;14.55;86.78;100444.16;5070521;28;20210;-69
2021/10/04 00:25:42;;;;;;;17.67;8.97;;;;;;;14.55;86.92;100435.19;5088765;28;20737;-69
2021/10/04 00:28:11;;;;;;;20.17;9.87;;;;;;;14.62;86.52;100440.91;5089119;28;20227;-76
2021/10/04 00:30:40;;;;;;;19.20;9.13;;;;;;;14.57;86.73;100433.22;5071281;28;20212;-76
2021/10/04 00:33:09;;;;;;;22.57;9.77;;;;;;;14.56;86.28;100426.94;5070791;28;20349;-76
2021/10/04 00:35:38;;;;;;;17.70;9.10;;;;;;;14.62;86.00;100425.53;5088941;28;20201;-75
2021/10/04 00:38:06;;;;;;;20.13;8.37;;;;;;;14.58;86.32;100433.06;5088606;28;20279;-75
2021/10/04 00:40:36;;;;;;;18.53;9.20;;;;;;;14.56;86.69;100429.66;5087287;28;20219;-76
2021/10/04 00:43:05;;;;;;;20.50;9.03;;;;;;;14.54;86.52;100433.50;5088541;28;20192;-75
2021/10/04 00:45:33;;;;;;;18.87;8.87;;;;;;;14.44;86.78;100421.81;5088468;28;20461;-74
2021/10/04 00:48:02;;;;;;;21.10;9.50;;;;;;;14.62;86.23;100440.91;5088730;28;20706;-75
2021/10/04 00:50:32;;;;;;;21.17;10.67;;;;;;;14.68;86.53;100451.16;5088248;28;20200;-75
2021/10/04 00:53:00;;;;;;;18.73;9.13;;;;;;;14.54;86.53;100422.69;5070531;28;20243;-77
2021/10/04 00:55:28;;;;;;;19.93;10.70;;;;;;;14.80;85.28;100450.94;5088536;28;20266;-76
2021/10/04 00:57:58;;;;;;;20.60;8.97;;;;;;;14.72;86.09;100447.22;5070654;28;20230;-76
2021/10/04 01:00:29;;;;;;;18.67;8.80;;;;;;;14.68;85.92;100440.34;5088151;28;20208;-76
2021/10/04 01:02:58;;;;;;;16.40;9.20;;;;;;;14.71;85.70;100432.84;5086202;28;20204;-76
2021/10/04 01:05:33;;;;;;;14.97;8.53;;;;;;;14.68;85.92;100441.19;5088349;28;20203;-76
2021/10/04 01:08:02;;;;;;;21.43;8.80;;;;;;;14.74;85.90;100443.38;5070449;28;20235;-76
2021/10/04 01:10:30;;;;;;;18.90;9.53;;;;;;;14.69;85.58;100450.16;5081139;28;20220;-76
2021/10/04 01:12:58;;;;;;;20.20;9.10;;;;;;;14.64;86.36;100445.19;5088321;28;20219;-69
2021/10/04 01:15:27;;;;;;;18.37;9.43;;;;;;;14.71;85.69;100456.31;5087765;28;20475;-76
2021/10/04 01:17:55;;;;;;;18.77;8.77;;;;;;;14.60;86.08;100452.72;5088334;28;20276;-69
2021/10/04 01:20:26;;;;;;;18.00;8.23;;;;;;;14.72;85.80;100458.03;5088408;28;20196;-69
2021/10/04 01:22:55;;;;;;;19.03;9.30;;;;;;;14.70;85.78;100468.13;5088397;28;20374;-69
2021/10/04 01:25:24;;;;;;;22.67;9.33;;;;;;;14.66;86.02;100463.97;5088619;28;20193;-70
2021/10/04 01:27:53;;;;;;;19.63;8.87;;;;;;;14.51;86.42;100437.31;5088415;28;20250;-69
2021/10/04 01:30:25;;;;;;;16.30;9.37;;;;;;;14.73;85.49;100468.69;5088260;28;20212;-76
2021/10/04 01:32:54;;;;;;;16.87;9.17;;;;;;;14.68;86.15;100459.25;5071732;28;20201;-76
2021/10/04 01:35:24;;;;;;;21.03;8.97;;;;;;;14.62;86.47;100463.38;5074255;28;20205;-76
2021/10/04 01:37:53;;;;;;;16.97;9.17;;;;;;;14.60;86.63;100466.22;5091613;28;20223;-70
2021/10/04 01:40:21;;;;;;;16.43;8.83;;;;;;;14.53;86.19;100456.94;5077891;28;20208;-75
2021/10/04 01:42:50;;;;;;;14.73;8.77;;;;;;;14.71;86.24;100477.94;5092237;28;20197;-75
2021/10/04 01:45:22;;;;;;;17.77;8.87;;;;;;;14.64;86.25;100488.41;5073376;28;20266;-75
2021/10/04 01:47:51;;;;;;;15.83;8.83;;;;;;;14.32;86.35;100431.78;5091959;28;20269;-75
2021/10/04 01:50:20;;;;;;;15.00;8.50;;;;;;;14.75;86.20;100484.78;5091403;28;20315;-75
2021/10/04 01:52:50;;;;;;;19.30;8.90;;;;;;;14.64;86.98;100484.88;5091846;28;20648;-76
2021/10/04 01:55:18;;;;;;;17.60;9.23;;;;;;;14.77;85.82;100499.00;5091422;28;20211;-75
2021/10/04 01:57:47;;;;;;;23.20;9.17;;;;;;;14.79;85.78;100487.06;5091964;28;20231;-75
2021/10/04 02:00:19;;;;;;;18.80;9.87;;;;;;;14.76;86.01;100503.56;5073376;28;20626;-70
2021/10/04 02:02:51;;;;;;;17.83;8.53;;;;;;;14.78;86.10;100506.13;5091645;28;20192;-70
2021/10/04 02:05:21;;;;;;;17.90;8.60;;;;;;;14.82;85.71;100497.59;5091203;28;20197;-69
2021/10/04 02:07:52;;;;;;;16.13;8.80;;;;;;;14.73;86.71;100508.41;5089943;28;20229;-69
2021/10/04 02:10:25;;;;;;;17.27;9.03;;;;;;;14.65;86.73;100500.09;5091194;28;20250;-75
2021/10/04 02:12:54;;;;;;;18.53;8.97;;;;;;;14.66;87.44;100505.34;5091433;28;20192;-75
2021/10/04 02:15:24;;;;;;;18.10;9.10;;;;;;;14.68;86.77;100500.66;5091579;28;20254;-76
2021/10/04 02:17:53;;;;;;;16.40;9.20;;;;;;;14.59;86.74;100479.88;5091457;28;20271;-76
2021/10/04 02:20:24;;;;;;;19.50;8.93;;;;;;;14.56;87.94;100501.75;5090883;28;20284;-76
2021/10/04 02:22:54;;;;;;;24.77;9.97;;;;;;;14.54;87.93;100504.59;5077325;28;20196;-70
2021/10/04 02:25:25;;;;;;;17.17;8.57;;;;;;;14.66;87.46;100518.00;5089266;28;20200;-69
2021/10/04 02:27:53;;;;;;;19.57;9.20;;;;;;;14.63;87.44;100515.59;5091266;28;20311;-69
2021/10/04 02:30:23;;;;;;;21.27;9.63;;;;;;;14.58;87.96;100519.56;5090951;28;20286;-76
2021/10/04 02:32:52;;;;;;;22.90;10.30;;;;;;;14.70;87.46;100516.78;5090940;28;20200;-76
2021/10/04 02:35:22;;;;;;;19.20;9.43;;;;;;;14.68;87.51;100527.69;5090989;28;20719;-76
2021/10/04 02:37:54;;;;;;;21.70;9.90;;;;;;;14.68;86.95;100511.47;5090262;28;20896;-75
2021/10/04 02:40:23;;;;;;;17.77;8.97;;;;;;;14.66;87.58;100523.41;5058691;28;20208;-76
2021/10/04 02:42:52;;;;;;;20.80;9.23;;;;;;;14.63;87.27;100523.69;5091032;28;20695;-76
2021/10/04 02:45:22;;;;;;;17.63;8.93;;;;;;;14.68;87.35;100532.25;5089326;28;20240;-76
2021/10/04 02:47:52;;;;;;;21.63;9.27;;;;;;;14.65;87.39;100522.56;5091040;28;20269;-76
2021/10/04 02:50:23;;;;;;;25.70;10.00;;;;;;;14.69;87.73;100525.84;5090573;28;20265;-76
2021/10/04 02:52:53;;;;;;;16.40;8.77;;;;;;;14.65;87.94;100519.88;5090971;28;20204;-69
2021/10/04 02:55:21;;;;;;;23.73;10.03;;;;;;;14.75;86.79;100528.88;5090557;28;20286;-69
2021/10/04 02:57:50;;;;;;;16.17;9.33;;;;;;;14.71;87.08;100526.59;5091069;28;20206;-69
2021/10/04 03:00:33;;;;;;;20.50;9.73;;;;;;;14.72;87.57;100536.41;5090503;28;20552;-70
2021/10/04 03:03:01;;;;;;;20.67;9.60;;;;;;;14.60;87.39;100524.81;5090821;28;20238;-70
2021/10/04 03:05:31;;;;;;;23.90;9.43;;;;;;;14.67;87.37;100544.06;5090466;28;20216;-70
2021/10/04 03:08:02;;;;;;;21.05;10.43;;;;;;;14.72;87.21;100545.38;5067673;28;20456;-69
2021/10/04 03:10:31;;;;;;;22.87;9.63;;;;;;;14.68;87.57;100548.47;5069815;28;20212;-70
2021/10/04 03:13:00;;;;;;;16.10;9.50;;;;;;;14.60;87.55;100539.19;5081981;28;20207;-70
2021/10/04 03:15:28;;;;;;;18.17;9.57;;;;;;;14.64;88.25;100541.63;5087136;28;20189;-71
2021/10/04 03:17:57;;;;;;;170.43;124.30;;;;;;;14.59;88.03;100534.78;5090380;28;20287;-70
2021/10/04 03:20:25;;;;;;;24.33;12.43;;;;;;;14.65;87.70;100537.94;5071999;28;20253;-70
2021/10/04 03:22:54;;;;;;;19.93;9.30;;;;;;;14.67;88.22;100546.75;5071921;28;20254;-70
2021/10/04 03:25:25;;;;;;;25.27;10.70;;;;;;;14.62;88.77;100541.75;5090129;28;20270;-70
2021/10/04 03:27:53;;;;;;;19.97;10.17;;;;;;;14.68;88.49;100543.91;5090019;28;20214;-70
2021/10/04 03:30:22;;;;;;;30.40;17.57;;;;;;;14.80;87.85;100542.84;5089794;28;20199;-71
2021/10/04 03:32:50;;;;;;;29.37;18.53;;;;;;;14.88;87.72;100548.44;5089928;28;20231;-70
2021/10/04 03:35:19;;;;;;;18.73;11.37;;;;;;;14.86;87.54;100560.38;5071729;28;20619;-70
2021/10/04 03:37:48;;;;;;;20.67;10.20;;;;;;;14.87;87.73;100552.13;5084264;28;20259;-70
2021/10/04 03:40:17;;;;;;;25.00;12.20;;;;;;;14.83;87.75;100552.53;5089315;28;20189;-71
2021/10/04 03:42:47;;;;;;;21.10;9.53;;;;;;;14.81;88.34;100552.66;5089461;28;20231;-71
2021/10/04 03:45:16;;;;;;;21.40;11.53;;;;;;;14.88;87.88;100564.66;5087157;28;20224;-71
2021/10/04 03:47:45;;;;;;;23.10;12.17;;;;;;;14.92;87.62;100562.53;5089598;28;20295;-71
2021/10/04 03:50:15;;;;;;;18.00;9.73;;;;;;;14.87;87.53;100564.78;5089524;28;20223;-71
2021/10/04 03:52:44;;;;;;;19.60;10.40;;;;;;;14.92;87.37;100565.22;5089049;28;20200;-71
2021/10/04 03:55:14;;;;;;;19.07;9.70;;;;;;;14.95;87.02;100564.09;5089045;28;20254;-71
2021/10/04 03:57:44;;;;;;;17.90;9.03;;;;;;;14.80;87.52;100558.22;5089061;28;20314;-70
2021/10/04 04:00:16;;;;;;;20.23;9.77;;;;;;;14.86;87.87;100563.06;5088488;28;20194;-71
2021/10/04 04:02:45;;;;;;;19.90;9.77;;;;;;;14.85;87.51;100572.19;5089637;28;20203;-70
2021/10/04 04:05:14;;;;;;;16.90;9.70;;;;;;;14.85;87.95;100577.59;5088080;28;20207;-71
2021/10/04 04:07:42;;;;;;;16.90;8.77;;;;;;;14.83;87.53;100574.16;5068862;28;20250;-70
2021/10/04 04:10:12;;;;;;;20.37;9.07;;;;;;;14.80;87.91;100590.66;5089176;28;20224;-70
2021/10/04 04:12:41;;;;;;;20.73;9.17;;;;;;;14.79;87.60;100579.00;5074772;28;20188;-70
2021/10/04 04:15:11;;;;;;;19.37;9.87;;;;;;;14.57;87.43;100536.75;5087931;28;20196;-71
2021/10/04 04:17:41;;;;;;;14.87;9.20;;;;;;;14.80;88.06;100579.84;5088528;28;20291;-70
2021/10/04 04:20:10;;;;;;;20.37;9.13;;;;;;;14.75;87.66;100580.25;5085010;28;20193;-71
2021/10/04 04:22:40;;;;;;;19.30;9.57;;;;;;;14.71;87.94;100569.84;5088577;28;20204;-71
2021/10/04 04:25:10;;;;;;;19.43;9.23;;;;;;;14.80;88.11;100596.06;5088062;28;20628;-70
2021/10/04 04:27:39;;;;;;;19.40;9.43;;;;;;;14.85;87.85;100607.34;5070382;28;20235;-71
2021/10/04 04:30:12;;;;;;;16.20;9.37;;;;;;;14.85;87.30;100599.22;5066968;28;20226;-71
2021/10/04 04:32:44;;;;;;;22.90;9.47;;;;;;;14.80;87.99;100601.47;5086903;28;20210;-72
2021/10/04 04:35:12;;;;;;;23.40;9.67;;;;;;;14.78;86.95;100593.50;5087724;28;20238;-70
2021/10/04 04:37:41;;;;;;;23.90;10.47;;;;;;;14.84;87.03;100603.78;5080858;28;20812;-69
2021/10/04 04:40:12;;;;;;;18.70;9.50;;;;;;;14.81;87.57;100605.88;5085827;28;20208;-76
2021/10/04 04:42:42;;;;;;;20.20;10.13;;;;;;;14.80;87.37;100602.34;5082493;28;20219;-73
2021/10/04 04:45:12;;;;;;;19.77;9.30;;;;;;;14.85;87.00;100612.75;5087833;28;20318;-67
2021/10/04 04:47:42;;;;;;;20.20;9.80;;;;;;;14.87;86.96;100625.13;5086886;28;20376;-67
2021/10/04 04:50:11;;;;;;;22.40;10.03;;;;;;;14.90;87.04;100635.66;5068888;28;20247;-68
2021/10/04 04:52:40;;;;;;;17.33;9.57;;;;;;;14.90;86.61;100646.50;5069674;28;20323;-74
2021/10/04 04:55:09;;;;;;;23.67;10.93;;;;;;;14.92;86.78;100654.47;5086994;28;20230;-75
2021/10/04 04:57:37;;;;;;;21.97;9.30;;;;;;;14.97;86.50;100660.31;5068232;28;20371;-75
2021/10/04 05:00:08;;;;;;;19.57;10.20;;;;;;;14.87;87.38;100670.25;5082861;28;20197;-75
2021/10/04 05:02:44;;;;;;;17.70;9.53;;;;;;;14.82;87.40;100676.06;5087110;28;20411;-77
2021/10/04 05:05:15;;;;;;;19.73;9.53;;;;;;;14.78;87.94;100674.59;5087297;28;20192;-76
2021/10/04 05:07:43;;;;;;;22.90;10.33;;;;;;;14.84;87.35;100679.47;5089207;28;20287;-75
2021/10/04 05:10:12;;;;;;;23.20;10.50;;;;;;;14.85;87.23;100680.34;5088268;28;20243;-76
2021/10/04 05:12:41;;;;;;;20.43;9.90;;;;;;;14.87;87.42;100681.06;5091380;28;20430;-70
2021/10/04 05:15:10;;;;;;;22.77;9.63;;;;;;;14.72;88.16;100680.56;5073643;28;20666;-69
2021/10/04 05:17:39;;;;;;;19.10;9.83;;;;;;;14.81;87.70;100695.13;5089505;28;20235;-69
2021/10/04 05:20:10;;;;;;;18.47;9.80;;;;;;;14.85;87.12;100696.56;5086537;28;20620;-69
2021/10/04 05:22:39;;;;;;;26.10;10.07;;;;;;;14.91;86.60;100698.72;5090645;28;20709;-70
2021/10/04 05:25:09;;;;;;;18.33;9.77;;;;;;;14.95;86.40;100712.84;5085140;28;20297;-69
2021/10/04 05:27:38;;;;;;;17.10;9.57;;;;;;;14.96;87.06;100715.41;5071514;28;20261;-69
2021/10/04 05:30:08;;;;;;;18.60;9.93;;;;;;;14.97;86.84;100722.53;5058982;28;20231;-70
2021/10/04 05:32:37;;;;;;;21.90;9.53;;;;;;;14.92;86.95;100719.38;5059270;28;20250;-69
2021/10/04 05:35:06;;;;;;;18.67;9.67;;;;;;;14.95;87.25;100724.50;5077982;28;20197;-69
2021/10/04 05:37:36;;;;;;;18.73;9.37;;;;;;;14.87;87.50;100727.03;5084432;28;20197;-69
2021/10/04 05:40:06;;;;;;;23.50;9.67;;;;;;;14.90;87.40;100733.03;5083250;28;20230;-70
2021/10/04 05:42:35;;;;;;;19.97;9.83;;;;;;;14.93;87.56;100742.72;5072042;28;20225;-69
2021/10/04 05:45:05;;;;;;;18.17;8.90;;;;;;;14.96;87.21;100753.28;5079348;28;20209;-70
2021/10/04 05:47:34;;;;;;;18.37;8.97;;;;;;;14.97;87.60;100743.31;5085818;28;20286;-70
2021/10/04 05:50:02;;;;;;;19.10;9.40;;;;;;;15.03;87.04;100753.63;5089609;28;20219;-69
2021/10/04 05:52:31;;;;;;;17.00;8.73;;;;;;;15.07;87.41;100755.06;5089574;28;20203;-70
2021/10/04 05:55:00;;;;;;;21.63;9.07;;;;;;;15.11;87.17;100757.38;5068405;28;20362;-70
2021/10/04 05:57:29;;;;;;;21.47;9.70;;;;;;;15.14;87.14;100758.94;5086953;28;20204;-70
2021/10/04 05:59:57;;;;;;;17.43;9.20;;;;;;;15.17;86.64;100767.66;5069414;28;20272;-70
2021/10/04 06:02:25;;;;;;;15.97;9.27;;;;;;;15.22;86.84;100775.38;5084207;28;20249;-70
2021/10/04 06:04:54;;;;;;;19.47;9.27;;;;;;;15.00;86.79;100722.28;5086745;28;20553;-70
2021/10/04 06:07:22;;;;;;;17.07;9.10;;;;;;;15.27;86.27;100769.56;5090576;28;20256;-69
2021/10/04 06:09:51;;;;;;;17.43;8.60;;;;;;;15.09;86.08;100737.72;5072091;28;20224;-70
2021/10/04 06:12:26;;;;;;;20.70;9.67;;;;;;;15.32;86.35;100770.03;5091173;28;20716;-70
2021/10/04 06:14:55;;;;;;;17.00;9.10;;;;;;;15.11;86.19;100735.72;5090914;28;20279;-70
2021/10/04 06:17:23;;;;;;;15.90;8.67;;;;;;;15.38;85.96;100786.59;5091076;28;20640;-69
2021/10/04 06:19:52;;;;;;;18.60;9.03;;;;;;;15.39;86.17;100790.16;5072552;28;20900;-69
2021/10/04 06:22:21;;;;;;;16.87;9.00;;;;;;;15.42;86.49;100790.75;5091348;28;20691;-69
2021/10/04 06:24:50;;;;;;;16.77;8.93;;;;;;;15.41;86.75;100791.72;5088659;28;20205;-69
2021/10/04 06:27:18;;;;;;;14.27;8.10;;;;;;;15.46;86.63;100803.00;5091471;28;20689;-70
2021/10/04 06:29:47;;;;;;;20.23;9.23;;;;;;;15.49;86.28;100810.84;5072229;28;20757;-69
2021/10/04 06:32:16;;;;;;;22.50;9.87;;;;;;;15.47;86.27;100806.56;5090973;28;20265;-68
2021/10/04 06:34:44;;;;;;;21.10;10.07;;;;;;;15.46;86.67;100802.16;5090410;28;20497;-69
2021/10/04 06:37:12;;;;;;;16.43;8.87;;;;;;;15.53;86.44;100811.44;5072924;28;20596;-69
2021/10/04 06:39:41;;;;;;;20.67;9.00;;;;;;;15.52;87.32;100815.13;5072100;28;20224;-69
2021/10/04 06:42:09;;;;;;;19.00;9.40;;;;;;;15.53;86.58;100812.28;5072643;28;20193;-75
2021/10/04 06:44:38;;;;;;;17.13;9.87;;;;;;;15.63;87.14;100831.34;5090287;28;20208;-75
2021/10/04 06:47:08;;;;;;;18.67;8.97;;;;;;;15.68;87.05;100836.38;5090335;28;20307;-75
2021/10/04 06:49:36;;;;;;;16.67;9.37;;;;;;;15.74;86.56;100842.09;5090394;28;20287;-75
2021/10/04 06:52:05;;;;;;;15.43;9.13;;;;;;;15.77;86.91;100840.97;5090283;28;20221;-76
2021/10/04 06:54:34;;;;;;;17.77;9.10;;;;;;;15.83;86.94;100835.00;5089105;28;20193;-76
2021/10/04 06:57:03;;;;;;;17.20;9.30;;;;;;;15.91;86.37;100847.84;5087898;28;20201;-75
2021/10/04 06:59:32;;;;;;;20.03;9.03;;;;;;;15.94;86.54;100845.75;5089910;28;20283;-75
2021/10/04 07:02:01;;;;;;;17.10;8.83;;;;;;;15.97;87.10;100847.34;5090209;28;20188;-68
2021/10/04 07:04:31;;;;;;;17.23;8.57;;;;;;;15.97;86.92;100847.34;5089966;28;20192;-71
2021/10/04 07:06:59;;;;;;;13.57;8.17;;;;;;;16.08;86.70;100853.50;5090482;28;20543;-70
2021/10/04 07:09:27;;;;;;;1999.90;999.90;;;;;;;16.14;86.14;100854.81;5090289;28;20231;-70
2021/10/04 07:11:55;;;;;;;763.97;383.37;;;;;;;16.08;86.13;100849.94;5090000;28;20220;-69
2021/10/04 07:14:24;;;;;;;129.40;85.50;;;;;;;16.27;86.02;100855.44;5058166;28;20201;-70
2021/10/04 07:16:52;;;;;;;64.30;46.07;;;;;;;16.35;86.29;100869.16;5090276;28;20247;-70
2021/10/04 07:19:20;;;;;;;53.13;32.20;;;;;;;16.36;86.21;100870.88;5089942;28;20204;-76
2021/10/04 07:21:52;;;;;;;46.77;32.97;;;;;;;16.50;85.93;100871.47;5088624;28;20742;-76
2021/10/04 07:24:20;;;;;;;36.40;26.27;;;;;;;16.64;85.75;100881.94;5089638;28;20193;-76
2021/10/04 07:26:50;;;;;;;36.73;24.27;;;;;;;16.70;85.23;100884.09;5089485;28;20280;-76
2021/10/04 07:29:19;;;;;;;28.10;17.97;;;;;;;16.77;84.35;100888.81;5089995;28;20670;-75
2021/10/04 07:31:50;;;;;;;23.33;13.00;;;;;;;16.85;83.92;100885.44;5088673;28;20299;-68
2021/10/04 07:34:18;;;;;;;25.07;16.97;;;;;;;16.94;83.75;100891.84;5090000;28;20455;-75
2021/10/04 07:36:47;;;;;;;29.60;22.60;;;;;;;17.00;83.92;100892.16;5089101;28;20197;-69
2021/10/04 07:39:17;;;;;;;15.77;10.27;;;;;;;17.05;83.68;100899.84;5089555;28;20232;-69
2021/10/04 07:41:47;;;;;;;23.93;17.40;;;;;;;17.06;84.28;100890.72;5089191;28;20418;-69
2021/10/04 07:44:16;;;;;;;16.93;9.90;;;;;;;17.27;83.60;100899.59;5079481;28;20255;-69
2021/10/04 07:46:44;;;;;;;11.57;7.30;;;;;;;17.35;83.22;100902.44;5067111;28;20461;-69
2021/10/04 07:49:12;;;;;;;12.20;8.17;;;;;;;17.43;82.57;100909.84;5071317;28;20219;-71
2021/10/04 07:51:55;;;;;;;11.20;6.97;;;;;;;17.42;82.73;100902.69;5077572;28;20621;-69
2021/10/04 07:54:25;;;;;;;13.03;7.57;;;;;;;17.50;81.79;100919.16;5089316;28;20211;-69
2021/10/04 07:56:54;;;;;;;12.70;7.43;;;;;;;17.53;81.21;100924.28;5089775;28;20659;-69
2021/10/04 07:59:23;;;;;;;14.33;6.07;;;;;;;17.53;81.73;100927.00;5089396;28;20224;-69
2021/10/04 08:01:51;;;;;;;8.53;5.70;;;;;;;17.58;81.21;100930.16;5070908;28;20743;-70
2021/10/04 08:04:19;;;;;;;7.70;5.30;;;;;;;17.62;81.77;100919.84;5089220;28;20728;-69
2021/10/04 08:06:48;;;;;;;7.73;4.47;;;;;;;17.62;81.16;100920.69;5088842;28;20344;-69
2021/10/04 08:09:16;;;;;;;5.27;3.50;;;;;;;17.61;81.40;100927.13;5075065;28;20216;-69
2021/10/04 08:11:46;;;;;;;4.17;3.20;;;;;;;17.62;80.50;100931.56;5088852;28;20234;-69
2021/10/04 08:14:14;;;;;;;3.73;2.70;;;;;;;17.63;80.47;100932.41;5088806;28;20622;-69
2021/10/04 08:16:43;;;;;;;3.83;2.83;;;;;;;17.55;80.29;100941.31;5070052;28;20208;-71
2021/10/04 08:19:11;;;;;;;4.90;3.40;;;;;;;17.58;80.02;100951.88;5088762;28;20193;-69
2021/10/04 08:21:39;;;;;;;5.47;3.10;;;;;;;17.58;80.43;100953.72;5086720;28;20224;-69
2021/10/04 08:24:08;;;;;;;5.23;2.80;;;;;;;17.50;80.13;100953.59;5088689;28;20196;-69
2021/10/04 08:26:36;;;;;;;5.50;3.30;;;;;;;17.45;79.97;100945.88;5088392;28;20600;-69
2021/10/04 08:29:06;;;;;;;4.70;3.10;;;;;;;17.57;79.65;100963.75;5088608;28;20203;-76
2021/10/04 08:31:34;;;;;;;5.00;2.67;;;;;;;17.49;79.01;100966.31;5088277;28;20219;-76
2021/10/04 08:34:05;;;;;;;5.13;2.67;;;;;;;17.49;79.47;100963.59;5088702;28;20204;-76
2021/10/04 08:36:34;;;;;;;3.53;2.63;;;;;;;17.53;78.71;100970.47;5088165;28;20272;-76
2021/10/04 08:39:05;;;;;;;2.90;2.20;;;;;;;17.50;79.20;100976.19;5088535;28;20250;-76
2021/10/04 08:41:34;;;;;;;3.90;2.37;;;;;;;17.44;78.75;100984.88;5069459;28;20207;-76
2021/10/04 08:44:08;;;;;;;4.07;2.17;;;;;;;17.45;79.11;100983.91;5088314;28;20492;-76
2021/10/04 08:46:38;;;;;;;3.40;2.30;;;;;;;17.51;78.80;100991.47;5087758;28;20236;-76
2021/10/04 08:49:12;;;;;;;3.00;2.00;;;;;;;17.48;78.88;100999.91;5088528;28;20192;-77
2021/10/04 08:51:40;;;;;;;2.63;1.90;;;;;;;17.57;78.38;101004.47;5086247;28;20801;-77
2021/10/04 08:54:09;;;;;;;3.17;2.30;;;;;;;17.60;78.46;101006.91;5088873;28;20283;-76
2021/10/04 08:56:37;;;;;;;2.67;1.83;;;;;;;17.62;77.87;101013.06;5070023;28;20660;-76
2021/10/04 08:59:07;;;;;;;3.30;2.33;;;;;;;17.69;78.02;101003.34;5074699;28;20659;-76
2021/10/04 09:01:35;;;;;;;3.73;2.00;;;;;;;17.75;77.76;100995.63;5087917;28;20216;-75
2021/10/04 09:04:04;;;;;;;3.13;2.30;;;;;;;17.75;77.42;101007.34;5088183;28;20226;-76
2021/10/04 09:06:35;;;;;;;2.73;2.20;;;;;;;17.81;77.43;101004.09;5087897;28;20287;-76
2021/10/04 09:09:06;;;;;;;3.17;2.37;;;;;;;17.81;76.95;101003.22;5070262;28;20201;-76
2021/10/04 09:11:37;;;;;;;2.57;2.03;;;;;;;17.86;77.26;101004.50;5087816;28;20285;-76
2021/10/04 09:14:12;;;;;;;3.03;2.20;;;;;;;17.83;76.62;101003.94;5087464;28;20296;-77
2021/10/04 09:16:57;;;;;;;2.57;2.00;;;;;;;17.78;76.37;101012.53;5087926;28;20307;-75
2021/10/04 09:19:28;;;;;;;3.87;2.20;;;;;;;17.78;76.67;101011.66;5070131;28;20196;-76
2021/10/04 09:22:15;;;;;;;3.43;2.40;;;;;;;17.75;76.85;101009.22;5088421;28;20683;-76
2021/10/04 09:25:00;;;;;;;5.90;1.97;;;;;;;17.75;76.62;101006.50;5074795;28;20197;-75
2021/10/04 09:27:31;;;;;;;5.03;1.90;;;;;;;17.78;76.92;101017.97;5087718;28;20220;-75
2021/10/04 09:30:02;;;;;;;2.43;1.83;;;;;;;17.70;76.65;100993.34;5088142;28;20193;-76
2021/10/04 09:32:36;;;;;;;5.20;2.40;;;;;;;17.90;77.13;101007.78;5087644;28;20226;-75
2021/10/04 09:35:24;;;;;;;2.83;2.20;;;;;;;17.89;76.15;101011.50;5088317;28;20193;-76
2021/10/04 09:37:55;;;;;;;5.43;2.50;;;;;;;17.86;76.49;101012.66;5087841;28;20201;-76
2021/10/04 09:40:36;;;;;;;3.57;2.10;;;;;;;17.86;76.63;101012.66;5069879;28;20726;-70
2021/10/04 09:43:06;;;;;;;8.43;2.20;;;;;;;17.79;76.89;101018.81;5080482;28;20251;-70
2021/10/04 09:45:36;;;;;;;2.50;2.20;;;;;;;17.77;76.92;101010.81;5085685;28;20332;-69
2021/10/04 09:48:12;;;;;;;3.80;2.50;;;;;;;17.76;76.54;101014.53;5088107;28;20204;-70
2021/10/04 09:50:41;;;;;;;5.17;2.33;;;;;;;17.79;76.64;101010.66;5074356;28;20686;-70
2021/10/04 09:53:12;;;;;;;3.40;2.13;;;;;;;17.66;76.70;100987.31;5088203;28;20243;-70
2021/10/04 09:55:42;;;;;;;2.50;1.83;;;;;;;17.86;76.42;101000.94;5091268;28;20197;-76
2021/10/04 09:58:14;;;;;;;3.73;1.80;;;;;;;17.96;76.54;101013.50;5091487;28;20203;-77
2021/10/04 10:00:52;;;;;;;2.30;1.60;;;;;;;18.02;75.85;101013.91;5091196;28;20584;-75
2021/10/04 10:03:23;;;;;;;6.50;1.83;;;;;;;18.07;75.94;101007.06;5091787;28;20695;-75
2021/10/04 10:05:54;;;;;;;1.83;1.50;;;;;;;18.08;75.70;101011.50;5073319;28;20250;-75
2021/10/04 10:08:23;;;;;;;3.33;1.80;;;;;;;18.14;75.14;101015.47;5085041;28;20208;-75
2021/10/04 10:10:52;;;;;;;1.77;1.57;;;;;;;18.15;75.05;101023.50;5073326;28;20619;-75
2021/10/04 10:13:23;;;;;;;1.93;1.53;;;;;;;18.17;74.90;101034.22;5072929;28;20323;-75
2021/10/04 10:16:01;;;;;;;3.33;1.50;;;;;;;18.13;75.08;101035.50;5091708;28;20245;-75
2021/10/04 10:18:35;;;;;;;1.30;1.20;;;;;;;18.18;75.13;101036.78;5091029;28;20205;-75
2021/10/04 10:21:07;;;;;;;2.87;1.10;;;;;;;18.19;74.33;101032.22;5072966;28;20196;-75
2021/10/04 10:23:50;;;;;;;1.33;1.00;;;;;;;18.27;74.71;101035.03;5090699;28;20228;-75
2021/10/04 10:26:27;;;;;;;5.10;1.40;;;;;;;18.36;73.97;101033.28;5091164;28;20200;-76
2021/10/04 10:29:26;;;;;;;3.43;1.40;;;;;;;18.47;72.47;101035.88;5091166;28;20196;-76
2021/10/04 10:32:14;;;;;;;2.37;1.43;;;;;;;18.38;71.62;101023.16;5077280;28;20572;-76
2021/10/04 10:34:55;;;;;;;2.60;1.40;;;;;;;18.36;72.01;101036.00;5090493;28;20275;-76
2021/10/04 10:37:27;;;;;;;2.67;1.07;;;;;;;18.31;72.41;101031.88;5089304;28;20220;-76
2021/10/04 10:39:58;;;;;;;1.60;0.90;;;;;;;18.46;72.15;101034.16;5090763;28;20287;-76
2021/10/04 10:42:29;;;;;;;4.03;1.00;;;;;;;18.56;71.15;101034.97;5090448;28;20197;-76
2021/10/04 10:45:17;;;;;;;7.43;1.40;;;;;;;18.65;70.87;101023.22;5090544;28;20196;-76
2021/10/04 10:47:59;;;;;;;1.47;0.90;;;;;;;18.75;71.07;101029.50;5090399;28;20204;-76
2021/10/04 10:50:36;;;;;;;2.50;0.80;;;;;;;18.72;70.80;101029.81;5090547;28;20585;-76
2021/10/04 10:53:10;;;;;;;2.97;0.93;;;;;;;18.71;71.24;101028.09;5090503;28;20749;-76
2021/10/04 10:55:40;;;;;;;2.43;0.90;;;;;;;18.73;70.71;101031.50;5090172;28;20201;-69
2021/10/04 10:58:12;;;;;;;1.20;1.10;;;;;;;18.83;71.00;101035.03;5072491;28;20641;-76
2021/10/04 11:00:44;;;;;;;6.40;1.10;;;;;;;18.75;69.72;101040.38;5071739;28;20242;-76
2021/10/04 11:03:16;;;;;;;3.93;1.73;;;;;;;18.95;69.58;101029.38;5090317;28;20306;-76
2021/10/04 11:06:02;;;;;;;3.33;1.20;;;;;;;18.95;70.13;101026.66;5089313;28;20266;-76
2021/10/04 11:09:01;;;;;;;2.03;1.10;;;;;;;19.10;69.56;101046.94;5088862;28;20205;-75
2021/10/04 11:11:34;;;;;;;0.90;0.90;;;;;;;19.22;69.27;101059.34;4962194;28;20236;-75
2021/10/04 11:14:08;;;;;;;2.83;1.30;;;;;;;19.28;68.20;101057.88;5071401;28;20267;-76
2021/10/04 11:16:38;;;;;;;1.83;0.90;;;;;;;19.34;68.83;101060.84;5089972;28;20246;-76
2021/10/04 11:19:09;;;;;;;1.83;1.10;;;;;;;19.44;68.59;101064.38;5072023;28;20269;-76
2021/10/04 11:21:45;;;;;;;3.00;1.10;;;;;;;19.59;68.43;101072.03;5071714;28;20212;-76
2021/10/04 11:24:13;;;;;;;1.60;0.93;;;;;;;19.58;68.18;101071.19;5089581;28;20727;-76
2021/10/04 11:26:42;;;;;;;6.57;1.40;;;;;;;19.74;68.46;101068.63;5089728;28;20231;-76
2021/10/04 11:29:11;;;;;;;1.90;1.33;;;;;;;19.72;67.21;101070.66;5089915;28;20283;-76
2021/10/04 11:31:45;;;;;;;2.13;1.40;;;;;;;19.65;66.96;101066.00;5089656;28;20565;-76
2021/10/04 11:34:17;;;;;;;0.80;0.77;;;;;;;19.65;66.44;101055.09;5089805;28;20213;-76